createdAt,value
2022-12-28T00:00:36.594Z,93.25
2022-12-28T00:03:09.884Z,93.09
2022-12-28T00:05:43.309Z,93.33
2022-12-28T00:08:17.970Z,93.02
2022-12-28T00:11:07.620Z,93.02
2022-12-28T00:13:44.838Z,93.19
2022-12-28T00:16:25.378Z,93.29
2022-12-28T00:19:00.429Z,93.65
2022-12-28T00:21:34.292Z,92.98
2022-12-28T00:24:09.859Z,93.31
2022-12-28T00:26:43.111Z,93.67
2022-12-28T00:29:16.828Z,93.16
2022-12-28T00:31:50.604Z,93.39
2022-12-28T00:34:24.355Z,93.22
2022-12-28T00:37:09.633Z,93.10
2022-12-28T00:39:47.321Z,93.04
2022-12-28T00:42:21.011Z,92.96
2022-12-28T00:44:54.431Z,93.57
2022-12-28T00:47:27.748Z,93.41
2022-12-28T00:50:01.284Z,93.41
2022-12-28T00:52:34.716Z,93.96
2022-12-28T00:55:10.184Z,94.04
2022-12-28T00:57:43.566Z,92.93
2022-12-28T01:00:17.803Z,93.74
2022-12-28T01:02:51.264Z,94.65
2022-12-28T01:05:26.460Z,94.10
2022-12-28T01:07:59.707Z,93.76
2022-12-28T01:10:34.328Z,94.26
2022-12-28T01:13:08.300Z,93.53
2022-12-28T01:15:42.538Z,93.80
2022-12-28T01:18:16.870Z,93.94
2022-12-28T01:20:49.990Z,94.28
2022-12-28T01:23:23.244Z,93.79
2022-12-28T01:26:02.609Z,93.52
2022-12-28T01:28:36.031Z,93.49
2022-12-28T01:31:11.905Z,93.47
2022-12-28T01:33:45.782Z,93.17
2022-12-28T01:36:21.638Z,93.52
2022-12-28T01:38:56.309Z,93.40
2022-12-28T01:41:32.375Z,93.73
2022-12-28T01:44:42.376Z,92.79
2022-12-28T01:47:19.969Z,92.00
2022-12-28T01:50:03.696Z,92.70
2022-12-28T01:52:40.356Z,92.23
2022-12-28T01:55:16.473Z,91.15
2022-12-28T01:57:55.071Z,91.21
2022-12-28T02:00:28.582Z,90.63
2022-12-28T02:03:04.458Z,89.50
2022-12-28T02:05:42.381Z,89.92
2022-12-28T02:08:21.559Z,89.81
2022-12-28T02:10:55.595Z,89.48
2022-12-28T02:13:31.787Z,89.73
2022-12-28T02:16:06.325Z,90.46
2022-12-28T02:18:42.770Z,90.11
2022-12-28T02:21:26.584Z,90.23
2022-12-28T02:24:34.477Z,90.49
2022-12-28T02:27:22.646Z,91.15
2022-12-28T02:30:04.615Z,89.93
2022-12-28T02:32:56.453Z,90.06
2022-12-28T02:35:40.070Z,89.89
2022-12-28T02:38:17.377Z,90.61
2022-12-28T02:40:57.205Z,90.74
2022-12-28T02:43:30.649Z,91.00
2022-12-28T02:46:30.291Z,90.59
2022-12-28T02:49:36.506Z,90.70
2022-12-28T02:52:17.910Z,90.33
2022-12-28T02:55:28.615Z,90.96
2022-12-28T02:58:31.699Z,90.82
2022-12-28T03:01:21.015Z,90.61
2022-12-28T03:04:06.170Z,91.04
2022-12-28T03:07:05.747Z,91.52
2022-12-28T03:09:45.972Z,90.75
2022-12-28T03:12:26.982Z,90.60
2022-12-28T03:15:07.977Z,91.67
2022-12-28T03:18:02.832Z,91.42
2022-12-28T03:20:53.273Z,91.47
2022-12-28T03:23:44.817Z,91.19
2022-12-28T03:26:38.239Z,91.16
2022-12-28T03:29:33.284Z,91.92
2022-12-28T03:32:08.453Z,91.28
2022-12-28T03:34:43.354Z,91.78
2022-12-28T03:37:25.771Z,91.15
2022-12-28T03:40:07.960Z,91.69
2022-12-28T03:43:04.655Z,92.00
2022-12-28T03:45:46.392Z,92.19
2022-12-28T03:48:21.029Z,91.83
2022-12-28T03:50:56.928Z,91.78
2022-12-28T03:53:38.032Z,91.65
2022-12-28T03:56:13.082Z,91.87
2022-12-28T03:58:46.489Z,91.04
2022-12-28T04:01:19.932Z,91.75
2022-12-28T04:03:53.384Z,90.78
2022-12-28T04:06:28.085Z,90.82
2022-12-28T04:09:01.527Z,90.61
2022-12-28T04:11:35.484Z,90.73
2022-12-28T04:14:11.091Z,90.37
2022-12-28T04:16:44.874Z,89.36
2022-12-28T04:19:18.332Z,87.79
2022-12-28T04:21:53.152Z,87.50
2022-12-28T04:24:26.759Z,86.58
2022-12-28T04:27:00.400Z,86.38
2022-12-28T04:29:34.065Z,86.31
2022-12-28T04:32:07.444Z,86.60
2022-12-28T04:34:46.386Z,86.09
2022-12-28T04:37:23.205Z,84.88
2022-12-28T04:39:57.461Z,84.32
2022-12-28T04:42:32.781Z,85.00
2022-12-28T04:45:07.205Z,85.54
2022-12-28T04:47:40.470Z,85.44
2022-12-28T04:50:13.752Z,85.56
2022-12-28T04:52:48.360Z,86.99
2022-12-28T04:55:32.624Z,86.60
2022-12-28T04:58:06.963Z,86.32
2022-12-28T05:00:40.651Z,86.56
2022-12-28T05:03:14.018Z,86.51
2022-12-28T05:05:48.722Z,86.82
2022-12-28T05:08:23.645Z,86.99
2022-12-28T05:11:01.067Z,86.72
2022-12-28T05:13:35.796Z,86.54
2022-12-28T05:16:12.914Z,86.15
2022-12-28T05:18:49.030Z,86.88
2022-12-28T05:21:23.860Z,86.79
2022-12-28T05:23:58.972Z,86.37
2022-12-28T05:26:32.252Z,86.52
2022-12-28T05:29:05.870Z,86.66
2022-12-28T05:31:39.243Z,86.49
2022-12-28T05:34:12.886Z,86.39
2022-12-28T05:36:47.220Z,86.90
2022-12-28T05:39:22.616Z,86.93
2022-12-28T05:42:00.150Z,86.78
2022-12-28T05:44:33.592Z,87.36
2022-12-28T05:47:07.126Z,87.28
2022-12-28T05:49:40.827Z,87.28
2022-12-28T05:52:14.143Z,87.39
2022-12-28T05:54:49.095Z,87.83
2022-12-28T05:57:22.358Z,88.22
2022-12-28T05:59:55.887Z,88.86
2022-12-28T06:02:29.638Z,88.26
2022-12-28T06:05:03.366Z,88.43
2022-12-28T06:07:36.987Z,88.92
2022-12-28T06:10:12.148Z,88.48
2022-12-28T06:12:47.482Z,88.70
2022-12-28T06:15:21.181Z,89.42
2022-12-28T06:17:55.095Z,89.45
2022-12-28T06:20:28.644Z,89.07
2022-12-28T06:23:02.033Z,89.33
2022-12-28T06:25:38.543Z,89.47
2022-12-28T06:28:11.940Z,90.02
2022-12-28T06:30:50.484Z,89.97
2022-12-28T06:33:26.182Z,90.98
2022-12-28T06:35:59.997Z,91.03
2022-12-28T06:38:34.541Z,91.15
2022-12-28T06:41:13.913Z,91.36
2022-12-28T06:43:49.335Z,91.04
2022-12-28T06:46:25.343Z,90.87
2022-12-28T06:48:58.698Z,91.61
2022-12-28T06:51:36.214Z,91.20
2022-12-28T06:54:09.894Z,91.32
2022-12-28T06:56:44.458Z,91.17
2022-12-28T06:59:18.282Z,91.62
2022-12-28T07:01:52.039Z,91.74
2022-12-28T07:04:25.384Z,91.98
2022-12-28T07:06:59.313Z,92.57
2022-12-28T07:09:32.772Z,92.41
2022-12-28T07:12:08.770Z,92.73
2022-12-28T07:14:43.017Z,92.49
2022-12-28T07:17:16.904Z,92.75
2022-12-28T07:19:51.391Z,93.52
2022-12-28T07:22:24.716Z,93.68
2022-12-28T07:24:58.144Z,94.27
2022-12-28T07:27:32.846Z,93.49
2022-12-28T07:30:07.324Z,93.85
2022-12-28T07:32:40.919Z,93.98
2022-12-28T07:35:14.187Z,94.26
2022-12-28T07:37:47.702Z,94.51
2022-12-28T07:40:21.214Z,94.05
2022-12-28T07:42:56.189Z,94.69
2022-12-28T07:45:29.675Z,94.56
2022-12-28T07:48:03.240Z,94.21
2022-12-28T07:50:38.098Z,94.37
2022-12-28T07:53:12.455Z,94.28
2022-12-28T07:55:56.366Z,94.30
2022-12-28T07:58:31.439Z,94.63
2022-12-28T08:01:06.588Z,93.97
2022-12-28T08:03:41.214Z,94.55
2022-12-28T08:06:18.781Z,94.17
2022-12-28T08:08:54.250Z,93.72
2022-12-28T08:11:31.805Z,93.42
2022-12-28T08:14:08.213Z,92.77
2022-12-28T08:16:43.268Z,92.09
2022-12-28T08:19:16.618Z,91.97
2022-12-28T08:21:50.110Z,91.64
2022-12-28T08:24:23.963Z,92.22
2022-12-28T08:26:57.484Z,91.98
2022-12-28T08:29:35.061Z,91.72
2022-12-28T08:32:08.333Z,91.77
2022-12-28T08:34:41.978Z,92.52
2022-12-28T08:37:15.282Z,91.03
2022-12-28T08:39:48.855Z,91.73
2022-12-28T08:42:22.380Z,91.11
2022-12-28T08:44:57.463Z,91.68
2022-12-28T08:47:30.806Z,91.40
2022-12-28T08:50:04.017Z,91.68
2022-12-28T08:52:37.254Z,91.57
2022-12-28T08:55:11.097Z,91.39
2022-12-28T08:57:44.459Z,91.43
2022-12-28T09:00:20.155Z,91.10
2022-12-28T09:02:53.702Z,91.62
2022-12-28T09:05:27.077Z,91.08
2022-12-28T09:08:00.725Z,91.11
2022-12-28T09:10:34.339Z,91.36
2022-12-28T09:13:09.097Z,90.21
2022-12-28T09:15:44.601Z,90.32
2022-12-28T09:18:17.978Z,90.16
2022-12-28T09:20:51.174Z,90.53
2022-12-28T09:23:24.857Z,90.64
2022-12-28T09:25:58.065Z,91.00
2022-12-28T09:28:31.731Z,89.85
2022-12-28T09:31:08.100Z,90.12
2022-12-28T09:36:53.947Z,90.12
2022-12-28T09:39:27.319Z,89.91
2022-12-28T09:42:03.504Z,89.59
2022-12-28T09:44:48.465Z,89.49
2022-12-28T09:47:34.838Z,90.41
2022-12-28T09:50:30.243Z,90.04
2022-12-28T09:53:30.444Z,90.13
2022-12-28T09:56:07.102Z,89.63
2022-12-28T09:58:46.429Z,89.94
2022-12-28T10:01:23.398Z,88.57
2022-12-28T10:04:01.758Z,87.73
2022-12-28T10:06:36.896Z,88.39
2022-12-28T10:09:14.780Z,87.40
2022-12-28T10:11:49.102Z,87.00
2022-12-28T10:14:28.297Z,86.72
2022-12-28T10:17:03.223Z,86.47
2022-12-28T10:19:38.448Z,85.71
2022-12-28T10:22:15.712Z,84.89
2022-12-28T10:24:49.839Z,84.73
2022-12-28T10:27:26.065Z,82.77
2022-12-28T10:30:02.600Z,80.59
2022-12-28T10:32:50.138Z,80.10
2022-12-28T10:35:27.603Z,79.14
2022-12-28T10:38:05.003Z,79.22
2022-12-28T10:40:40.001Z,80.11
2022-12-28T10:43:20.272Z,80.45
2022-12-28T10:45:53.907Z,78.87
2022-12-28T10:48:31.864Z,79.02
2022-12-28T10:51:15.073Z,79.77
2022-12-28T10:53:50.547Z,79.59
2022-12-28T10:56:26.870Z,79.92
2022-12-28T10:59:26.098Z,79.70
2022-12-28T11:02:25.160Z,79.07
2022-12-28T11:05:01.252Z,79.37
2022-12-28T11:07:37.842Z,79.41
2022-12-28T11:10:25.824Z,79.71
2022-12-28T11:13:01.093Z,79.93
2022-12-28T11:15:35.045Z,79.83
2022-12-28T11:18:16.656Z,80.14
2022-12-28T11:20:52.389Z,80.06
2022-12-28T11:23:31.798Z,79.10
2022-12-28T11:26:05.356Z,79.23
2022-12-28T11:28:41.241Z,79.77
2022-12-28T11:31:22.279Z,79.44
2022-12-28T11:33:59.647Z,79.85
2022-12-28T11:36:38.796Z,79.32
2022-12-28T11:39:42.046Z,78.88
2022-12-28T11:42:55.100Z,78.81
2022-12-28T11:45:54.661Z,79.05
2022-12-28T11:48:58.661Z,79.47
2022-12-28T11:51:34.075Z,78.93
2022-12-28T11:54:40.692Z,76.94
2022-12-28T11:57:34.525Z,76.39
2022-12-28T12:00:49.147Z,75.09
2022-12-28T12:04:06.763Z,74.78
2022-12-28T12:07:32.113Z,75.07
2022-12-28T12:10:35.229Z,75.93
2022-12-28T12:13:45.022Z,75.34
2022-12-28T12:16:25.317Z,75.07
2022-12-28T12:19:00.801Z,74.85
2022-12-28T12:21:39.184Z,74.59
2022-12-28T12:24:26.993Z,75.44
2022-12-28T12:27:12.062Z,75.58
2022-12-28T12:29:52.743Z,75.93
2022-12-28T12:32:31.976Z,75.19
2022-12-28T12:35:07.657Z,75.32
2022-12-28T12:37:47.654Z,75.94
2022-12-28T12:40:54.564Z,75.65
2022-12-28T12:43:41.725Z,76.12
2022-12-28T12:46:44.735Z,75.77
2022-12-28T12:49:32.991Z,76.32
2022-12-28T12:52:20.464Z,75.36
2022-12-28T12:55:05.667Z,75.53
2022-12-28T12:57:52.208Z,76.06
2022-12-28T13:00:34.109Z,76.16
2022-12-28T13:03:25.336Z,76.39
2022-12-28T13:05:59.834Z,75.80
2022-12-28T13:08:39.254Z,76.05
2022-12-28T13:11:14.413Z,75.59
2022-12-28T13:13:51.268Z,76.09
2022-12-28T13:16:28.520Z,76.31
2022-12-28T13:19:04.240Z,75.92
2022-12-28T13:21:43.091Z,75.86
2022-12-28T13:24:25.144Z,75.68
2022-12-28T13:27:00.784Z,75.86
2022-12-28T13:29:39.776Z,75.86
2022-12-28T13:32:29.397Z,76.73
2022-12-28T13:35:18.441Z,77.48
2022-12-28T13:38:03.769Z,77.29
2022-12-28T13:40:39.885Z,77.09
2022-12-28T13:43:46.265Z,77.65
2022-12-28T13:46:21.662Z,77.63
2022-12-28T13:48:59.637Z,77.21
2022-12-28T13:51:39.150Z,77.44
2022-12-28T13:54:13.551Z,77.62
2022-12-28T13:56:47.601Z,77.88
2022-12-28T13:59:22.264Z,77.09
2022-12-28T14:01:56.951Z,77.49
2022-12-28T14:07:30.062Z,78.02
2022-12-28T14:10:04.725Z,78.15
2022-12-28T14:12:39.528Z,77.51
2022-12-28T14:15:14.628Z,77.43
2022-12-28T14:17:51.775Z,77.13
2022-12-28T14:20:26.733Z,77.20
2022-12-28T14:23:21.727Z,77.44
2022-12-28T14:25:58.005Z,78.03
2022-12-28T14:28:35.710Z,77.62
2022-12-28T14:31:11.476Z,78.22
2022-12-28T14:33:54.296Z,76.73
2022-12-28T14:36:31.647Z,76.61
2022-12-28T14:39:06.708Z,77.77
2022-12-28T14:41:42.533Z,77.44
2022-12-28T14:44:19.013Z,77.38
2022-12-28T14:46:54.517Z,77.55
2022-12-28T14:49:37.826Z,77.87
2022-12-28T14:52:36.123Z,77.64
2022-12-28T14:55:24.905Z,77.84
2022-12-28T14:58:03.734Z,78.79
2022-12-28T15:00:38.410Z,78.79
2022-12-28T15:03:18.117Z,78.89
2022-12-28T15:05:53.125Z,78.34
2022-12-28T15:08:28.539Z,78.01
2022-12-28T15:13:38.071Z,77.64
2022-12-28T15:16:13.762Z,77.54
2022-12-28T15:18:47.569Z,76.54
2022-12-28T15:21:24.136Z,76.95
2022-12-28T15:23:59.616Z,76.58
2022-12-28T15:26:33.023Z,76.08
2022-12-28T15:29:06.704Z,76.56
2022-12-28T15:31:42.253Z,76.11
2022-12-28T15:34:15.777Z,77.16
2022-12-28T15:36:49.454Z,76.96
2022-12-28T15:39:25.129Z,77.38
2022-12-28T15:41:58.491Z,76.99
2022-12-28T15:44:31.653Z,77.76
2022-12-28T15:47:04.907Z,77.40
2022-12-28T15:49:39.655Z,78.22
2022-12-28T15:52:13.253Z,78.21
2022-12-28T15:54:47.878Z,78.36
2022-12-28T15:57:21.039Z,78.25
2022-12-28T15:59:54.985Z,78.99
2022-12-28T16:02:28.460Z,77.94
2022-12-28T16:05:02.320Z,78.92
2022-12-28T16:07:35.877Z,78.50
2022-12-28T16:10:11.374Z,78.05
2022-12-28T16:12:45.009Z,78.68
2022-12-28T16:15:19.012Z,78.06
2022-12-28T16:17:57.252Z,79.58
2022-12-28T16:20:31.295Z,79.22
2022-12-28T16:23:04.702Z,79.18
2022-12-28T16:25:39.505Z,79.58
2022-12-28T16:28:12.997Z,79.58
2022-12-28T16:30:49.803Z,79.69
2022-12-28T16:33:24.136Z,80.32
2022-12-28T16:35:59.709Z,79.72
2022-12-28T16:38:35.861Z,79.96
2022-12-28T16:41:10.500Z,79.93
2022-12-28T16:43:43.717Z,80.16
2022-12-28T16:46:17.615Z,80.29
2022-12-28T16:48:51.298Z,80.52
2022-12-28T16:51:25.065Z,80.76
2022-12-28T16:53:59.245Z,80.47
2022-12-28T16:56:34.027Z,80.67
2022-12-28T16:59:07.576Z,81.45
2022-12-28T17:01:42.124Z,80.78
2022-12-28T17:04:15.978Z,80.96
2022-12-28T17:06:50.854Z,80.86
2022-12-28T17:09:24.160Z,81.92
2022-12-28T17:11:59.725Z,81.70
2022-12-28T17:14:38.048Z,82.08
2022-12-28T17:17:12.032Z,81.76
2022-12-28T17:19:46.288Z,81.70
2022-12-28T17:22:19.732Z,82.49
2022-12-28T17:24:53.322Z,82.19
2022-12-28T17:27:28.234Z,83.21
2022-12-28T17:30:01.432Z,82.37
2022-12-28T17:32:34.775Z,83.02
2022-12-28T17:35:09.270Z,82.89
2022-12-28T17:37:42.861Z,83.16
2022-12-28T17:40:16.214Z,82.74
2022-12-28T17:42:50.837Z,83.61
2022-12-28T17:45:24.045Z,83.95
2022-12-28T17:47:57.351Z,84.01
2022-12-28T17:50:30.887Z,83.70
2022-12-28T17:53:04.533Z,84.38
2022-12-28T17:55:38.446Z,84.37
2022-12-28T17:58:13.194Z,83.97
2022-12-28T18:00:46.583Z,84.30
2022-12-28T18:03:21.142Z,84.70
2022-12-28T18:05:55.894Z,83.54
2022-12-28T18:08:29.771Z,84.52
2022-12-28T18:11:03.290Z,85.00
2022-12-28T18:13:38.707Z,85.29
2022-12-28T18:16:15.139Z,84.75
2022-12-28T18:18:49.010Z,85.90
2022-12-28T18:21:23.196Z,85.47
2022-12-28T18:23:56.846Z,86.05
2022-12-28T18:26:30.792Z,86.07
2022-12-28T18:29:05.520Z,86.15
2022-12-28T18:31:38.946Z,86.72
2022-12-28T18:34:12.234Z,86.68
2022-12-28T18:36:45.488Z,86.31
2022-12-28T18:39:19.147Z,86.96
2022-12-28T18:41:52.870Z,86.94
2022-12-28T18:44:28.150Z,87.78
2022-12-28T18:47:01.405Z,88.59
2022-12-28T18:49:34.617Z,88.75
2022-12-28T18:52:07.853Z,88.35
2022-12-28T18:54:41.350Z,88.24
2022-12-28T18:57:15.310Z,89.11
2022-12-28T18:59:50.438Z,88.72
2022-12-28T19:02:23.949Z,88.46
2022-12-28T19:04:57.685Z,88.67
2022-12-28T19:07:31.204Z,88.90
2022-12-28T19:10:13.905Z,89.31
2022-12-28T19:12:48.395Z,89.40
2022-12-28T19:15:23.397Z,90.02
2022-12-28T19:17:56.740Z,89.79
2022-12-28T19:20:30.431Z,89.95
2022-12-28T19:23:03.483Z,89.84
2022-12-28T19:25:38.915Z,89.83
2022-12-28T19:28:12.451Z,89.50
2022-12-28T19:30:47.346Z,89.17
2022-12-28T19:33:20.477Z,89.74
2022-12-28T19:35:53.880Z,90.11
2022-12-28T19:38:27.370Z,89.66
2022-12-28T19:41:04.857Z,89.50
2022-12-28T19:43:38.531Z,89.97
2022-12-28T19:46:15.111Z,90.22
2022-12-28T19:48:48.521Z,89.49
2022-12-28T19:51:27.081Z,89.49
2022-12-28T19:54:04.052Z,88.92
2022-12-28T19:56:37.522Z,89.34
2022-12-28T19:59:11.130Z,89.30
2022-12-28T20:01:45.853Z,88.71
2022-12-28T20:04:19.291Z,89.25
2022-12-28T20:06:52.717Z,89.81
2022-12-28T20:09:26.485Z,89.18
2022-12-28T20:12:01.682Z,88.93
2022-12-28T20:14:35.719Z,89.12
2022-12-28T20:17:10.839Z,89.03
2022-12-28T20:19:44.138Z,88.41
2022-12-28T20:22:17.375Z,89.05
2022-12-28T20:24:50.714Z,89.28
2022-12-28T20:27:28.470Z,89.10
2022-12-28T20:30:01.757Z,88.88
2022-12-28T20:32:41.230Z,89.25
2022-12-28T20:35:17.997Z,88.94
2022-12-28T20:37:51.368Z,88.36
2022-12-28T20:40:24.976Z,88.95
2022-12-28T20:43:15.677Z,89.12
2022-12-28T20:45:54.080Z,88.94
2022-12-28T20:48:29.861Z,89.40
2022-12-28T20:51:03.613Z,89.29
2022-12-28T20:53:37.093Z,89.40
2022-12-28T20:56:11.270Z,89.19
2022-12-28T20:58:44.637Z,89.30
2022-12-28T21:01:19.008Z,89.15
2022-12-28T21:03:54.318Z,89.81
2022-12-28T21:06:27.619Z,89.44
2022-12-28T21:09:01.363Z,88.89
2022-12-28T21:11:34.661Z,88.88
2022-12-28T21:14:08.455Z,89.44
2022-12-28T21:16:42.150Z,89.56
2022-12-28T21:19:17.816Z,88.94
2022-12-28T21:21:51.187Z,89.11
2022-12-28T21:24:24.685Z,89.50
2022-12-28T21:26:57.917Z,89.57
2022-12-28T21:29:31.326Z,90.33
2022-12-28T21:32:05.138Z,89.50
2022-12-28T21:34:40.325Z,89.02
2022-12-28T21:37:31.415Z,88.54
2022-12-28T21:40:08.172Z,89.72
2022-12-28T21:42:41.830Z,90.36
2022-12-28T21:45:15.390Z,90.31
2022-12-28T21:47:48.624Z,90.66
2022-12-28T21:50:23.290Z,90.28
2022-12-28T21:52:56.575Z,90.24
2022-12-28T21:55:46.907Z,90.96
2022-12-28T21:58:20.169Z,91.10
2022-12-28T22:01:16.345Z,91.25
2022-12-28T22:04:07.461Z,91.17
2022-12-28T22:06:42.329Z,91.13
2022-12-28T22:09:33.365Z,91.09
2022-12-28T22:12:24.935Z,91.34
2022-12-28T22:15:12.659Z,91.72
2022-12-28T22:17:46.701Z,91.42
2022-12-28T22:20:19.882Z,91.65
2022-12-28T22:22:56.703Z,91.26
2022-12-28T22:25:31.603Z,91.32
2022-12-28T22:28:05.568Z,91.34
2022-12-28T22:30:38.912Z,91.23
2022-12-28T22:33:12.141Z,91.67
2022-12-28T22:35:45.510Z,91.40
2022-12-28T22:38:20.445Z,91.88
2022-12-28T22:40:58.388Z,91.71
2022-12-28T22:43:31.648Z,91.97
2022-12-28T22:46:06.743Z,92.31
2022-12-28T22:48:40.297Z,92.46
2022-12-28T22:51:16.810Z,93.26
2022-12-28T22:53:51.486Z,92.95
2022-12-28T22:56:24.701Z,93.22
2022-12-28T22:59:04.230Z,92.80
2022-12-28T23:01:38.697Z,93.69
2022-12-28T23:04:12.544Z,93.05
2022-12-28T23:06:45.962Z,94.04
2022-12-28T23:09:20.547Z,93.54
2022-12-28T23:11:57.689Z,93.28
2022-12-28T23:14:48.791Z,93.36
2022-12-28T23:17:23.814Z,93.80
2022-12-28T23:20:14.435Z,94.09
2022-12-28T23:23:04.999Z,94.36
2022-12-28T23:25:58.877Z,94.40
2022-12-28T23:28:32.219Z,94.62
2022-12-28T23:31:06.110Z,94.13
2022-12-28T23:33:39.553Z,94.36
2022-12-28T23:36:12.933Z,94.59
2022-12-28T23:38:46.394Z,93.86
2022-12-28T23:41:38.297Z,94.59
2022-12-28T23:44:11.712Z,94.40
2022-12-28T23:46:46.832Z,95.49
2022-12-28T23:49:20.766Z,95.01
2022-12-28T23:51:53.762Z,95.50
2022-12-28T23:54:28.169Z,94.56
2022-12-28T23:57:03.087Z,95.27
2022-12-28T23:59:36.262Z,95.62
